sensor_id;sensor_type;location;lat;lon;timestamp;P1;durP1;ratioP1;P2;durP2;ratioP2
12222;SDS011;6174;49.058;8.524;2023-06-22T05:01:00;9.33;;;8.43;;
12222;SDS011;6174;49.058;8.524;2023-06-22T05:03:28;11.70;;;9.13;;
12222;SDS011;6174;49.058;8.524;2023-06-22T05:05:59;10.70;;;8.97;;
12222;SDS011;6174;49.058;8.524;2023-06-22T05:23:35;9.70;;;8.70;;
12222;SDS011;6174;49.058;8.524;2023-06-22T05:26:02;12.77;;;8.80;;
12222;SDS011;6174;49.058;8.524;2023-06-22T05:28:29;12.07;;;9.93;;
12222;SDS011;6174;49.058;8.524;2023-06-22T05:30:56;11.83;;;9.73;;
12222;SDS011;6174;49.058;8.524;2023-06-22T05:33:23;12.13;;;9.80;;
12222;SDS011;6174;49.058;8.524;2023-06-22T05:35:50;11.37;;;9.13;;
12222;SDS011;6174;49.058;8.524;2023-06-22T05:38:17;9.90;;;9.00;;
12222;SDS011;6174;49.058;8.524;2023-06-22T05:40:45;10.70;;;9.10;;
12222;SDS011;6174;49.058;8.524;2023-06-22T05:43:11;10.03;;;9.00;;
12222;SDS011;6174;49.058;8.524;2023-06-22T05:45:38;10.10;;;8.87;;
12222;SDS011;6174;49.058;8.524;2023-06-22T05:48:05;9.83;;;8.83;;
12222;SDS011;6174;49.058;8.524;2023-06-22T05:50:32;9.57;;;8.43;;
12222;SDS011;6174;49.058;8.524;2023-06-22T05:52:59;10.20;;;9.30;;
12222;SDS011;6174;49.058;8.524;2023-06-22T05:55:25;10.33;;;8.40;;
12222;SDS011;6174;49.058;8.524;2023-06-22T05:57:54;9.67;;;8.73;;
12222;SDS011;6174;49.058;8.524;2023-06-22T06:00:20;11.53;;;8.63;;
12222;SDS011;6174;49.058;8.524;2023-06-22T06:02:48;10.43;;;9.03;;
12222;SDS011;6174;49.058;8.524;2023-06-22T06:05:15;9.67;;;8.63;;
12222;SDS011;6174;49.058;8.524;2023-06-22T06:07:44;10.47;;;8.50;;
12222;SDS011;6174;49.058;8.524;2023-06-22T06:10:12;9.67;;;8.77;;
12222;SDS011;6174;49.058;8.524;2023-06-22T06:12:39;8.87;;;7.97;;
12222;SDS011;6174;49.058;8.524;2023-06-22T06:15:07;9.83;;;8.80;;
12222;SDS011;6174;49.058;8.524;2023-06-22T06:17:35;8.77;;;7.87;;
12222;SDS011;6174;49.058;8.524;2023-06-22T06:20:02;9.53;;;8.53;;
12222;SDS011;6174;49.058;8.524;2023-06-22T06:22:32;10.73;;;8.03;;
12222;SDS011;6174;49.058;8.524;2023-06-22T06:24:59;9.40;;;8.43;;
12222;SDS011;6174;49.058;8.524;2023-06-22T06:27:26;9.13;;;8.10;;
12222;SDS011;6174;49.058;8.524;2023-06-22T06:29:54;9.57;;;8.53;;
12222;SDS011;6174;49.058;8.524;2023-06-22T06:32:22;12.97;;;8.47;;
12222;SDS011;6174;49.058;8.524;2023-06-22T06:34:49;8.43;;;7.63;;
12222;SDS011;6174;49.058;8.524;2023-06-22T06:37:16;8.98;;;8.13;;
12222;SDS011;6174;49.058;8.524;2023-06-22T06:39:43;11.82;;;8.38;;
12222;SDS011;6174;49.058;8.524;2023-06-22T06:42:10;9.10;;;7.90;;
12222;SDS011;6174;49.058;8.524;2023-06-22T06:44:37;11.43;;;8.90;;
12222;SDS011;6174;49.058;8.524;2023-06-22T06:47:03;10.57;;;8.30;;
12222;SDS011;6174;49.058;8.524;2023-06-22T06:52:45;10.20;;;8.20;;
12222;SDS011;6174;49.058;8.524;2023-06-22T06:55:12;9.48;;;8.05;;
12222;SDS011;6174;49.058;8.524;2023-06-22T06:57:39;9.80;;;8.15;;
12222;SDS011;6174;49.058;8.524;2023-06-22T07:00:07;9.35;;;8.45;;
12222;SDS011;6174;49.058;8.524;2023-06-22T07:02:37;9.48;;;8.15;;
12222;SDS011;6174;49.058;8.524;2023-06-22T07:38:30;8.03;;;7.23;;
12222;SDS011;6174;49.058;8.524;2023-06-22T07:40:57;8.47;;;7.67;;
12222;SDS011;6174;49.058;8.524;2023-06-22T07:43:23;8.07;;;7.10;;
12222;SDS011;6174;49.058;8.524;2023-06-22T07:45:50;7.60;;;6.85;;
12222;SDS011;6174;49.058;8.524;2023-06-22T07:48:19;7.65;;;6.82;;
12222;SDS011;6174;49.058;8.524;2023-06-22T07:50:46;6.85;;;6.10;;
12222;SDS011;6174;49.058;8.524;2023-06-22T07:53:13;7.70;;;6.20;;
12222;SDS011;6174;49.058;8.524;2023-06-22T07:55:41;6.63;;;6.03;;
12222;SDS011;6174;49.058;8.524;2023-06-22T07:58:07;7.30;;;6.55;;
12222;SDS011;6174;49.058;8.524;2023-06-22T08:00:34;8.55;;;7.03;;
12222;SDS011;6174;49.058;8.524;2023-06-22T08:03:01;8.25;;;6.28;;
12222;SDS011;6174;49.058;8.524;2023-06-22T08:05:30;6.53;;;5.90;;
12222;SDS011;6174;49.058;8.524;2023-06-22T08:07:56;6.68;;;6.07;;
12222;SDS011;6174;49.058;8.524;2023-06-22T08:10:23;8.13;;;6.50;;
12222;SDS011;6174;49.058;8.524;2023-06-22T08:12:52;7.80;;;6.25;;
12222;SDS011;6174;49.058;8.524;2023-06-22T08:15:19;6.38;;;5.78;;
12222;SDS011;6174;49.058;8.524;2023-06-22T08:17:47;5.97;;;5.13;;
12222;SDS011;6174;49.058;8.524;2023-06-22T08:20:14;6.75;;;5.10;;
12222;SDS011;6174;49.058;8.524;2023-06-22T08:22:40;6.55;;;5.28;;
12222;SDS011;6174;49.058;8.524;2023-06-22T08:25:08;6.43;;;5.68;;
12222;SDS011;6174;49.058;8.524;2023-06-22T08:27:35;6.47;;;5.20;;
12222;SDS011;6174;49.058;8.524;2023-06-22T08:30:04;7.00;;;4.57;;
12222;SDS011;6174;49.058;8.524;2023-06-22T08:32:32;6.43;;;4.75;;
12222;SDS011;6174;49.058;8.524;2023-06-22T08:34:59;6.82;;;5.47;;
12222;SDS011;6174;49.058;8.524;2023-06-22T08:37:29;6.85;;;5.50;;
12222;SDS011;6174;49.058;8.524;2023-06-22T08:39:56;5.70;;;5.20;;
12222;SDS011;6174;49.058;8.524;2023-06-22T08:42:23;6.03;;;5.45;;
12222;SDS011;6174;49.058;8.524;2023-06-22T08:44:50;7.95;;;5.38;;
12222;SDS011;6174;49.058;8.524;2023-06-22T08:47:18;6.43;;;5.22;;
12222;SDS011;6174;49.058;8.524;2023-06-22T08:49:46;6.75;;;5.35;;
12222;SDS011;6174;49.058;8.524;2023-06-22T08:52:13;6.57;;;4.80;;
12222;SDS011;6174;49.058;8.524;2023-06-22T08:54:40;6.90;;;5.20;;
12222;SDS011;6174;49.058;8.524;2023-06-22T08:57:06;6.38;;;4.82;;
12222;SDS011;6174;49.058;8.524;2023-06-22T08:59:33;9.60;;;5.30;;
12222;SDS011;6174;49.058;8.524;2023-06-22T09:02:00;7.28;;;5.43;;
12222;SDS011;6174;49.058;8.524;2023-06-22T09:04:28;8.05;;;5.63;;
12222;SDS011;6174;49.058;8.524;2023-06-22T09:06:54;6.38;;;5.30;;
12222;SDS011;6174;49.058;8.524;2023-06-22T09:09:21;6.22;;;5.63;;
12222;SDS011;6174;49.058;8.524;2023-06-22T09:11:48;5.90;;;5.28;;
12222;SDS011;6174;49.058;8.524;2023-06-22T09:14:15;36.67;;;6.95;;
12222;SDS011;6174;49.058;8.524;2023-06-22T09:16:42;5.97;;;5.38;;
12222;SDS011;6174;49.058;8.524;2023-06-22T09:19:09;7.53;;;5.47;;
12222;SDS011;6174;49.058;8.524;2023-06-22T09:21:37;5.88;;;5.30;;
12222;SDS011;6174;49.058;8.524;2023-06-22T09:24:04;7.57;;;5.60;;
12222;SDS011;6174;49.058;8.524;2023-06-22T09:26:31;8.82;;;5.80;;
12222;SDS011;6174;49.058;8.524;2023-06-22T09:28:58;6.28;;;5.28;;
12222;SDS011;6174;49.058;8.524;2023-06-22T09:31:25;5.93;;;5.38;;
12222;SDS011;6174;49.058;8.524;2023-06-22T09:33:52;6.22;;;5.72;;
12222;SDS011;6174;49.058;8.524;2023-06-22T09:36:19;6.97;;;6.13;;
12222;SDS011;6174;49.058;8.524;2023-06-22T09:38:47;8.15;;;5.57;;
12222;SDS011;6174;49.058;8.524;2023-06-22T09:41:20;5.75;;;5.25;;
12222;SDS011;6174;49.058;8.524;2023-06-22T09:43:47;7.32;;;5.70;;
12222;SDS011;6174;49.058;8.524;2023-06-22T09:46:14;6.88;;;6.22;;
12222;SDS011;6174;49.058;8.524;2023-06-22T09:48:41;8.73;;;5.38;;
12222;SDS011;6174;49.058;8.524;2023-06-22T09:51:08;6.95;;;5.50;;
12222;SDS011;6174;49.058;8.524;2023-06-22T09:53:35;6.75;;;5.72;;
12222;SDS011;6174;49.058;8.524;2023-06-22T09:56:04;6.97;;;6.05;;
12222;SDS011;6174;49.058;8.524;2023-06-22T09:58:31;6.13;;;5.53;;
12222;SDS011;6174;49.058;8.524;2023-06-22T10:00:58;6.85;;;5.22;;
12222;SDS011;6174;49.058;8.524;2023-06-22T10:03:24;12.48;;;6.35;;
12222;SDS011;6174;49.058;8.524;2023-06-22T10:05:51;6.32;;;5.70;;
12222;SDS011;6174;49.058;8.524;2023-06-22T10:08:18;6.63;;;5.38;;
12222;SDS011;6174;49.058;8.524;2023-06-22T10:10:45;8.13;;;5.80;;
12222;SDS011;6174;49.058;8.524;2023-06-22T10:13:13;8.23;;;5.40;;
12222;SDS011;6174;49.058;8.524;2023-06-22T10:15:40;6.55;;;5.80;;
12222;SDS011;6174;49.058;8.524;2023-06-22T10:18:07;8.27;;;6.00;;
12222;SDS011;6174;49.058;8.524;2023-06-22T10:20:34;6.60;;;5.88;;
12222;SDS011;6174;49.058;8.524;2023-06-22T10:23:01;6.57;;;5.80;;
12222;SDS011;6174;49.058;8.524;2023-06-22T10:25:28;7.95;;;5.55;;
12222;SDS011;6174;49.058;8.524;2023-06-22T10:27:54;7.00;;;5.53;;
12222;SDS011;6174;49.058;8.524;2023-06-22T10:30:23;6.88;;;5.95;;
12222;SDS011;6174;49.058;8.524;2023-06-22T10:32:49;7.72;;;5.70;;
12222;SDS011;6174;49.058;8.524;2023-06-22T10:35:16;6.78;;;5.65;;
12222;SDS011;6174;49.058;8.524;2023-06-22T10:37:44;5.78;;;5.28;;
12222;SDS011;6174;49.058;8.524;2023-06-22T10:40:11;7.57;;;5.63;;
12222;SDS011;6174;49.058;8.524;2023-06-22T10:42:39;8.57;;;6.03;;
12222;SDS011;6174;49.058;8.524;2023-06-22T10:45:07;7.88;;;6.03;;
12222;SDS011;6174;49.058;8.524;2023-06-22T10:47:36;6.35;;;5.75;;
12222;SDS011;6174;49.058;8.524;2023-06-22T10:50:03;7.15;;;5.82;;
12222;SDS011;6174;49.058;8.524;2023-06-22T10:52:31;7.00;;;6.30;;
12222;SDS011;6174;49.058;8.524;2023-06-22T10:54:58;6.50;;;5.90;;
12222;SDS011;6174;49.058;8.524;2023-06-22T10:57:24;8.65;;;6.60;;
12222;SDS011;6174;49.058;8.524;2023-06-22T10:59:51;10.27;;;7.13;;
12222;SDS011;6174;49.058;8.524;2023-06-22T11:02:18;11.50;;;7.30;;
12222;SDS011;6174;49.058;8.524;2023-06-22T11:04:46;8.00;;;6.82;;
12222;SDS011;6174;49.058;8.524;2023-06-22T11:07:13;12.15;;;11.05;;
12222;SDS011;6174;49.058;8.524;2023-06-22T11:09:42;8.52;;;6.82;;
12222;SDS011;6174;49.058;8.524;2023-06-22T11:12:09;10.10;;;5.82;;
12222;SDS011;6174;49.058;8.524;2023-06-22T11:14:36;11.27;;;8.95;;
12222;SDS011;6174;49.058;8.524;2023-06-22T11:17:03;6.63;;;5.78;;
12222;SDS011;6174;49.058;8.524;2023-06-22T11:19:30;7.20;;;5.95;;
12222;SDS011;6174;49.058;8.524;2023-06-22T11:21:58;6.25;;;5.68;;
12222;SDS011;6174;49.058;8.524;2023-06-22T11:24:24;6.45;;;5.85;;
12222;SDS011;6174;49.058;8.524;2023-06-22T11:26:51;7.90;;;5.72;;
12222;SDS011;6174;49.058;8.524;2023-06-22T11:29:18;6.85;;;5.65;;
12222;SDS011;6174;49.058;8.524;2023-06-22T11:31:45;6.50;;;5.82;;
12222;SDS011;6174;49.058;8.524;2023-06-22T11:34:11;6.55;;;6.00;;
12222;SDS011;6174;49.058;8.524;2023-06-22T11:36:38;6.78;;;5.53;;
12222;SDS011;6174;49.058;8.524;2023-06-22T11:39:07;6.40;;;5.72;;
12222;SDS011;6174;49.058;8.524;2023-06-22T11:41:35;6.72;;;6.13;;
12222;SDS011;6174;49.058;8.524;2023-06-22T11:44:02;7.35;;;6.32;;
12222;SDS011;6174;49.058;8.524;2023-06-22T11:46:29;7.97;;;6.13;;
12222;SDS011;6174;49.058;8.524;2023-06-22T11:48:56;6.50;;;5.90;;
12222;SDS011;6174;49.058;8.524;2023-06-22T11:51:23;9.02;;;6.22;;
12222;SDS011;6174;49.058;8.524;2023-06-22T11:53:50;6.82;;;6.22;;
12222;SDS011;6174;49.058;8.524;2023-06-22T11:56:18;7.60;;;5.97;;
12222;SDS011;6174;49.058;8.524;2023-06-22T11:58:45;8.02;;;6.00;;
12222;SDS011;6174;49.058;8.524;2023-06-22T12:01:11;6.72;;;5.97;;
12222;SDS011;6174;49.058;8.524;2023-06-22T12:03:40;6.97;;;6.28;;
12222;SDS011;6174;49.058;8.524;2023-06-22T12:06:08;7.45;;;6.00;;
12222;SDS011;6174;49.058;8.524;2023-06-22T12:08:35;8.77;;;6.40;;
12222;SDS011;6174;49.058;8.524;2023-06-22T12:11:01;7.10;;;6.40;;
12222;SDS011;6174;49.058;8.524;2023-06-22T12:13:29;7.30;;;6.35;;
12222;SDS011;6174;49.058;8.524;2023-06-22T12:15:56;7.22;;;6.50;;
12222;SDS011;6174;49.058;8.524;2023-06-22T12:18:23;8.18;;;6.45;;
12222;SDS011;6174;49.058;8.524;2023-06-22T12:20:50;7.72;;;6.35;;
12222;SDS011;6174;49.058;8.524;2023-06-22T12:23:16;6.22;;;5.68;;
12222;SDS011;6174;49.058;8.524;2023-06-22T12:25:44;6.80;;;6.20;;
12222;SDS011;6174;49.058;8.524;2023-06-22T12:28:11;8.73;;;6.28;;
12222;SDS011;6174;49.058;8.524;2023-06-22T12:30:40;7.43;;;6.45;;
12222;SDS011;6174;49.058;8.524;2023-06-22T12:33:07;7.47;;;6.57;;
12222;SDS011;6174;49.058;8.524;2023-06-22T12:35:34;6.85;;;6.15;;
12222;SDS011;6174;49.058;8.524;2023-06-22T12:38:00;8.13;;;6.55;;
12222;SDS011;6174;49.058;8.524;2023-06-22T12:40:27;7.05;;;6.28;;
12222;SDS011;6174;49.058;8.524;2023-06-22T12:42:54;7.53;;;6.72;;
12222;SDS011;6174;49.058;8.524;2023-06-22T12:45:21;7.57;;;6.60;;
12222;SDS011;6174;49.058;8.524;2023-06-22T12:47:49;7.40;;;5.82;;
12222;SDS011;6174;49.058;8.524;2023-06-22T12:50:16;7.75;;;6.88;;
12222;SDS011;6174;49.058;8.524;2023-06-22T12:52:43;9.45;;;5.82;;
12222;SDS011;6174;49.058;8.524;2023-06-22T12:55:09;8.07;;;5.68;;
12222;SDS011;6174;49.058;8.524;2023-06-22T12:57:36;8.07;;;6.05;;
12222;SDS011;6174;49.058;8.524;2023-06-22T13:00:03;6.43;;;5.90;;
12222;SDS011;6174;49.058;8.524;2023-06-22T13:02:33;7.13;;;6.50;;
12222;SDS011;6174;49.058;8.524;2023-06-22T13:05:01;6.43;;;5.55;;
12222;SDS011;6174;49.058;8.524;2023-06-22T13:07:30;8.63;;;6.72;;
12222;SDS011;6174;49.058;8.524;2023-06-22T13:09:56;7.55;;;6.70;;
12222;SDS011;6174;49.058;8.524;2023-06-22T13:12:23;9.55;;;6.90;;
12222;SDS011;6174;49.058;8.524;2023-06-22T13:14:50;9.60;;;6.57;;
12222;SDS011;6174;49.058;8.524;2023-06-22T13:17:17;7.75;;;6.88;;
12222;SDS011;6174;49.058;8.524;2023-06-22T13:19:43;8.75;;;6.38;;
12222;SDS011;6174;49.058;8.524;2023-06-22T13:22:25;7.72;;;6.55;;
12222;SDS011;6174;49.058;8.524;2023-06-22T13:24:54;8.15;;;6.72;;
12222;SDS011;6174;49.058;8.524;2023-06-22T13:27:21;9.68;;;6.65;;
12222;SDS011;6174;49.058;8.524;2023-06-22T13:29:48;9.57;;;6.55;;
12222;SDS011;6174;49.058;8.524;2023-06-22T13:32:15;6.85;;;6.15;;
12222;SDS011;6174;49.058;8.524;2023-06-22T13:34:42;7.07;;;6.38;;
12222;SDS011;6174;49.058;8.524;2023-06-22T13:37:09;8.27;;;6.43;;
12222;SDS011;6174;49.058;8.524;2023-06-22T13:39:37;10.85;;;6.93;;
12222;SDS011;6174;49.058;8.524;2023-06-22T13:42:05;8.10;;;6.45;;
12222;SDS011;6174;49.058;8.524;2023-06-22T13:44:32;7.10;;;6.50;;
12222;SDS011;6174;49.058;8.524;2023-06-22T13:46:59;7.28;;;6.50;;
12222;SDS011;6174;49.058;8.524;2023-06-22T13:49:26;8.27;;;6.90;;
12222;SDS011;6174;49.058;8.524;2023-06-22T13:51:52;9.15;;;6.88;;
12222;SDS011;6174;49.058;8.524;2023-06-22T13:54:19;7.68;;;6.82;;
12222;SDS011;6174;49.058;8.524;2023-06-22T13:56:47;10.02;;;6.50;;
12222;SDS011;6174;49.058;8.524;2023-06-22T13:59:14;10.32;;;6.82;;
12222;SDS011;6174;49.058;8.524;2023-06-22T14:01:41;7.82;;;7.03;;
12222;SDS011;6174;49.058;8.524;2023-06-22T14:04:08;9.95;;;7.50;;
12222;SDS011;6174;49.058;8.524;2023-06-22T14:06:35;7.82;;;6.45;;
12222;SDS011;6174;49.058;8.524;2023-06-22T14:09:01;9.77;;;6.60;;
12222;SDS011;6174;49.058;8.524;2023-06-22T14:11:28;8.18;;;6.47;;
12222;SDS011;6174;49.058;8.524;2023-06-22T14:13:56;8.90;;;7.22;;
12222;SDS011;6174;49.058;8.524;2023-06-22T14:16:23;7.85;;;7.05;;
12222;SDS011;6174;49.058;8.524;2023-06-22T14:18:50;7.80;;;6.35;;
12222;SDS011;6174;49.058;8.524;2023-06-22T14:21:16;8.23;;;6.15;;
12222;SDS011;6174;49.058;8.524;2023-06-22T14:23:44;9.30;;;6.50;;
12222;SDS011;6174;49.058;8.524;2023-06-22T14:26:14;8.02;;;6.35;;
12222;SDS011;6174;49.058;8.524;2023-06-22T14:28:42;7.05;;;6.28;;
12222;SDS011;6174;49.058;8.524;2023-06-22T14:31:13;9.80;;;6.03;;
12222;SDS011;6174;49.058;8.524;2023-06-22T14:33:40;6.90;;;6.25;;
12222;SDS011;6174;49.058;8.524;2023-06-22T14:36:07;7.90;;;6.47;;
12222;SDS011;6174;49.058;8.524;2023-06-22T14:38:33;8.85;;;6.47;;
12222;SDS011;6174;49.058;8.524;2023-06-22T14:41:00;8.80;;;6.88;;
12222;SDS011;6174;49.058;8.524;2023-06-22T14:43:30;8.52;;;6.38;;
12222;SDS011;6174;49.058;8.524;2023-06-22T14:45:56;7.30;;;6.47;;
12222;SDS011;6174;49.058;8.524;2023-06-22T14:48:24;8.90;;;6.07;;
12222;SDS011;6174;49.058;8.524;2023-06-22T14:50:51;8.73;;;6.50;;
12222;SDS011;6174;49.058;8.524;2023-06-22T14:53:19;10.77;;;6.78;;
12222;SDS011;6174;49.058;8.524;2023-06-22T14:55:45;7.43;;;6.28;;
12222;SDS011;6174;49.058;8.524;2023-06-22T14:58:12;9.43;;;6.93;;
12222;SDS011;6174;49.058;8.524;2023-06-22T15:00:39;8.13;;;6.25;;
12222;SDS011;6174;49.058;8.524;2023-06-22T15:03:06;9.60;;;8.27;;
12222;SDS011;6174;49.058;8.524;2023-06-22T15:05:37;8.57;;;6.43;;
12222;SDS011;6174;49.058;8.524;2023-06-22T15:08:04;8.63;;;6.43;;
12222;SDS011;6174;49.058;8.524;2023-06-22T15:10:31;7.15;;;6.30;;
12222;SDS011;6174;49.058;8.524;2023-06-22T15:12:57;8.63;;;6.35;;
12222;SDS011;6174;49.058;8.524;2023-06-22T15:15:24;9.82;;;6.55;;
12222;SDS011;6174;49.058;8.524;2023-06-22T15:17:51;7.80;;;5.90;;
12222;SDS011;6174;49.058;8.524;2023-06-22T15:20:18;10.63;;;6.60;;
12222;SDS011;6174;49.058;8.524;2023-06-22T15:22:46;7.13;;;6.43;;
12222;SDS011;6174;49.058;8.524;2023-06-22T15:25:12;7.95;;;5.93;;
12222;SDS011;6174;49.058;8.524;2023-06-22T15:27:39;8.88;;;6.30;;
12222;SDS011;6174;49.058;8.524;2023-06-22T15:30:06;7.85;;;6.30;;
12222;SDS011;6174;49.058;8.524;2023-06-22T15:32:34;10.00;;;6.53;;
12222;SDS011;6174;49.058;8.524;2023-06-22T15:35:00;9.10;;;5.85;;
12222;SDS011;6174;49.058;8.524;2023-06-22T15:37:28;8.85;;;6.38;;
12222;SDS011;6174;49.058;8.524;2023-06-22T15:39:56;10.88;;;6.38;;
12222;SDS011;6174;49.058;8.524;2023-06-22T15:42:23;7.13;;;6.43;;
12222;SDS011;6174;49.058;8.524;2023-06-22T15:44:50;6.95;;;6.15;;
12222;SDS011;6174;49.058;8.524;2023-06-22T15:47:17;8.60;;;6.38;;
12222;SDS011;6174;49.058;8.524;2023-06-22T15:49:47;7.80;;;6.07;;
12222;SDS011;6174;49.058;8.524;2023-06-22T15:52:17;7.40;;;5.85;;
12222;SDS011;6174;49.058;8.524;2023-06-22T15:54:44;8.45;;;7.00;;
12222;SDS011;6174;49.058;8.524;2023-06-22T15:57:13;9.68;;;6.82;;
12222;SDS011;6174;49.058;8.524;2023-06-22T15:59:40;8.90;;;6.32;;
12222;SDS011;6174;49.058;8.524;2023-06-22T16:02:07;8.50;;;6.38;;
12222;SDS011;6174;49.058;8.524;2023-06-22T16:04:34;7.53;;;5.82;;
12222;SDS011;6174;49.058;8.524;2023-06-22T16:07:02;8.50;;;6.43;;
12222;SDS011;6174;49.058;8.524;2023-06-22T16:09:29;11.88;;;6.05;;
12222;SDS011;6174;49.058;8.524;2023-06-22T16:11:56;10.45;;;6.38;;
12222;SDS011;6174;49.058;8.524;2023-06-22T16:14:24;12.10;;;6.95;;
12222;SDS011;6174;49.058;8.524;2023-06-22T16:16:51;9.32;;;6.43;;
12222;SDS011;6174;49.058;8.524;2023-06-22T16:19:18;6.93;;;6.07;;
12222;SDS011;6174;49.058;8.524;2023-06-22T16:21:45;8.15;;;6.70;;
12222;SDS011;6174;49.058;8.524;2023-06-22T16:24:11;9.80;;;6.00;;
12222;SDS011;6174;49.058;8.524;2023-06-22T16:26:40;10.35;;;6.20;;
12222;SDS011;6174;49.058;8.524;2023-06-22T16:29:07;7.95;;;6.32;;
12222;SDS011;6174;49.058;8.524;2023-06-22T16:31:36;8.63;;;6.15;;
12222;SDS011;6174;49.058;8.524;2023-06-22T16:34:03;9.68;;;6.45;;
12222;SDS011;6174;49.058;8.524;2023-06-22T16:36:30;9.77;;;6.32;;
12222;SDS011;6174;49.058;8.524;2023-06-22T16:38:57;10.65;;;6.53;;
12222;SDS011;6174;49.058;8.524;2023-06-22T16:41:24;10.10;;;6.50;;
12222;SDS011;6174;49.058;8.524;2023-06-22T16:43:51;9.55;;;6.43;;
12222;SDS011;6174;49.058;8.524;2023-06-22T16:46:18;10.02;;;6.53;;
12222;SDS011;6174;49.058;8.524;2023-06-22T16:48:50;8.88;;;6.15;;
12222;SDS011;6174;49.058;8.524;2023-06-22T16:51:17;10.82;;;6.78;;
12222;SDS011;6174;49.058;8.524;2023-06-22T16:53:44;12.93;;;6.45;;
12222;SDS011;6174;49.058;8.524;2023-06-22T16:56:12;10.30;;;7.00;;
12222;SDS011;6174;49.058;8.524;2023-06-22T16:58:39;10.88;;;6.82;;
12222;SDS011;6174;49.058;8.524;2023-06-22T17:01:06;12.05;;;6.97;;
12222;SDS011;6174;49.058;8.524;2023-06-22T17:03:34;9.00;;;6.32;;
12222;SDS011;6174;49.058;8.524;2023-06-22T17:06:19;8.63;;;5.85;;
12222;SDS011;6174;49.058;8.524;2023-06-22T17:08:47;8.75;;;5.82;;
12222;SDS011;6174;49.058;8.524;2023-06-22T17:11:14;9.48;;;5.85;;
12222;SDS011;6174;49.058;8.524;2023-06-22T17:13:42;12.07;;;5.90;;
12222;SDS011;6174;49.058;8.524;2023-06-22T17:16:09;9.18;;;6.25;;
12222;SDS011;6174;49.058;8.524;2023-06-22T17:18:36;8.18;;;5.47;;
12222;SDS011;6174;49.058;8.524;2023-06-22T17:21:05;9.50;;;5.32;;
12222;SDS011;6174;49.058;8.524;2023-06-22T17:23:33;7.18;;;5.20;;
12222;SDS011;6174;49.058;8.524;2023-06-22T17:26:00;8.13;;;4.53;;
12222;SDS011;6174;49.058;8.524;2023-06-22T17:28:43;6.88;;;4.47;;
12222;SDS011;6174;49.058;8.524;2023-06-22T17:31:12;10.68;;;4.90;;
12222;SDS011;6174;49.058;8.524;2023-06-22T17:33:38;7.95;;;4.80;;
12222;SDS011;6174;49.058;8.524;2023-06-22T17:36:08;10.20;;;4.53;;
12222;SDS011;6174;49.058;8.524;2023-06-22T17:38:38;7.20;;;4.50;;
12222;SDS011;6174;49.058;8.524;2023-06-22T17:41:05;6.03;;;3.83;;
12222;SDS011;6174;49.058;8.524;2023-06-22T17:43:32;7.28;;;3.90;;
12222;SDS011;6174;49.058;8.524;2023-06-22T17:46:08;6.72;;;3.45;;
12222;SDS011;6174;49.058;8.524;2023-06-22T17:48:35;7.05;;;3.75;;
12222;SDS011;6174;49.058;8.524;2023-06-22T17:51:04;7.10;;;4.05;;
12222;SDS011;6174;49.058;8.524;2023-06-22T17:53:33;4.60;;;3.03;;
12222;SDS011;6174;49.058;8.524;2023-06-22T17:56:01;8.63;;;3.50;;
12222;SDS011;6174;49.058;8.524;2023-06-22T17:58:28;4.97;;;3.40;;
12222;SDS011;6174;49.058;8.524;2023-06-22T18:00:57;5.95;;;3.20;;
12222;SDS011;6174;49.058;8.524;2023-06-22T18:03:24;7.20;;;3.30;;
12222;SDS011;6174;49.058;8.524;2023-06-22T18:05:51;7.30;;;3.42;;
12222;SDS011;6174;49.058;8.524;2023-06-22T18:08:21;5.70;;;2.97;;
12222;SDS011;6174;49.058;8.524;2023-06-22T18:10:51;6.78;;;3.33;;
12222;SDS011;6174;49.058;8.524;2023-06-22T18:13:24;6.50;;;3.10;;
12222;SDS011;6174;49.058;8.524;2023-06-22T18:15:52;5.38;;;3.05;;
12222;SDS011;6174;49.058;8.524;2023-06-22T18:18:19;6.30;;;3.30;;
12222;SDS011;6174;49.058;8.524;2023-06-22T18:20:49;6.05;;;3.35;;
12222;SDS011;6174;49.058;8.524;2023-06-22T18:23:17;6.15;;;3.20;;
12222;SDS011;6174;49.058;8.524;2023-06-22T18:25:45;7.32;;;3.05;;
12222;SDS011;6174;49.058;8.524;2023-06-22T18:28:13;5.15;;;3.08;;
12222;SDS011;6174;49.058;8.524;2023-06-22T18:30:43;5.18;;;3.30;;
12222;SDS011;6174;49.058;8.524;2023-06-22T18:33:10;4.45;;;3.08;;
12222;SDS011;6174;49.058;8.524;2023-06-22T18:35:37;6.43;;;3.20;;
12222;SDS011;6174;49.058;8.524;2023-06-22T18:38:04;4.85;;;3.10;;
12222;SDS011;6174;49.058;8.524;2023-06-22T18:40:31;5.75;;;2.80;;
12222;SDS011;6174;49.058;8.524;2023-06-22T18:42:58;6.40;;;3.25;;
12222;SDS011;6174;49.058;8.524;2023-06-22T18:45:27;5.47;;;3.20;;
12222;SDS011;6174;49.058;8.524;2023-06-22T18:47:56;6.10;;;3.13;;
12222;SDS011;6174;49.058;8.524;2023-06-22T18:50:37;4.88;;;3.10;;
12222;SDS011;6174;49.058;8.524;2023-06-22T18:53:10;3.50;;;2.95;;
12222;SDS011;6174;49.058;8.524;2023-06-22T18:55:40;8.05;;;3.28;;
12222;SDS011;6174;49.058;8.524;2023-06-22T18:58:15;6.15;;;3.10;;
12222;SDS011;6174;49.058;8.524;2023-06-22T19:00:44;4.85;;;3.20;;
12222;SDS011;6174;49.058;8.524;2023-06-22T19:03:26;5.57;;;3.28;;
12222;SDS011;6174;49.058;8.524;2023-06-22T19:05:55;7.93;;;3.42;;
12222;SDS011;6174;49.058;8.524;2023-06-22T19:08:22;5.57;;;3.38;;
12222;SDS011;6174;49.058;8.524;2023-06-22T19:10:49;7.32;;;3.17;;
12222;SDS011;6174;49.058;8.524;2023-06-22T19:13:17;5.85;;;3.58;;
12222;SDS011;6174;49.058;8.524;2023-06-22T19:15:46;6.70;;;3.30;;
12222;SDS011;6174;49.058;8.524;2023-06-22T19:18:14;6.82;;;3.72;;
12222;SDS011;6174;49.058;8.524;2023-06-22T19:20:43;4.68;;;3.50;;
12222;SDS011;6174;49.058;8.524;2023-06-22T19:23:22;5.00;;;3.40;;
12222;SDS011;6174;49.058;8.524;2023-06-22T19:25:50;5.45;;;3.03;;
12222;SDS011;6174;49.058;8.524;2023-06-22T19:28:22;7.75;;;3.50;;
12222;SDS011;6174;49.058;8.524;2023-06-22T19:30:49;4.45;;;3.10;;
12222;SDS011;6174;49.058;8.524;2023-06-22T19:33:17;5.05;;;3.40;;
12222;SDS011;6174;49.058;8.524;2023-06-22T19:35:45;5.07;;;2.95;;
12222;SDS011;6174;49.058;8.524;2023-06-22T19:38:14;5.47;;;2.65;;
12222;SDS011;6174;49.058;8.524;2023-06-22T19:40:42;6.00;;;2.80;;
12222;SDS011;6174;49.058;8.524;2023-06-22T19:43:08;4.05;;;2.70;;
12222;SDS011;6174;49.058;8.524;2023-06-22T19:45:38;3.25;;;2.35;;
12222;SDS011;6174;49.058;8.524;2023-06-22T19:48:06;2.63;;;2.00;;
12222;SDS011;6174;49.058;8.524;2023-06-22T19:50:34;1.95;;;1.77;;
12222;SDS011;6174;49.058;8.524;2023-06-22T19:53:06;3.13;;;1.90;;
12222;SDS011;6174;49.058;8.524;2023-06-22T19:55:35;3.42;;;1.85;;
12222;SDS011;6174;49.058;8.524;2023-06-22T19:58:04;2.80;;;1.92;;
12222;SDS011;6174;49.058;8.524;2023-06-22T20:00:31;2.38;;;1.70;;
12222;SDS011;6174;49.058;8.524;2023-06-22T20:02:59;2.83;;;1.65;;
12222;SDS011;6174;49.058;8.524;2023-06-22T20:05:27;2.97;;;1.58;;
12222;SDS011;6174;49.058;8.524;2023-06-22T20:07:53;3.15;;;1.50;;
12222;SDS011;6174;49.058;8.524;2023-06-22T20:10:22;2.15;;;1.33;;
12222;SDS011;6174;49.058;8.524;2023-06-22T20:12:50;1.90;;;1.10;;
12222;SDS011;6174;49.058;8.524;2023-06-22T20:15:21;4.60;;;1.30;;
12222;SDS011;6174;49.058;8.524;2023-06-22T20:17:53;3.85;;;1.40;;
12222;SDS011;6174;49.058;8.524;2023-06-22T20:20:22;3.10;;;1.48;;
12222;SDS011;6174;49.058;8.524;2023-06-22T20:22:49;4.25;;;1.60;;
12222;SDS011;6174;49.058;8.524;2023-06-22T20:25:18;2.57;;;1.50;;
12222;SDS011;6174;49.058;8.524;2023-06-22T20:27:47;3.10;;;1.43;;
12222;SDS011;6174;49.058;8.524;2023-06-22T20:30:14;4.90;;;1.67;;
12222;SDS011;6174;49.058;8.524;2023-06-22T20:32:48;3.63;;;1.60;;
12222;SDS011;6174;49.058;8.524;2023-06-22T20:35:16;2.63;;;1.70;;
12222;SDS011;6174;49.058;8.524;2023-06-22T20:37:45;2.53;;;1.60;;
12222;SDS011;6174;49.058;8.524;2023-06-22T20:40:13;2.77;;;1.80;;
12222;SDS011;6174;49.058;8.524;2023-06-22T20:42:40;2.63;;;1.90;;
12222;SDS011;6174;49.058;8.524;2023-06-22T20:45:08;2.53;;;1.53;;
12222;SDS011;6174;49.058;8.524;2023-06-22T20:47:36;5.53;;;1.77;;
12222;SDS011;6174;49.058;8.524;2023-06-22T20:50:06;1.73;;;1.60;;
12222;SDS011;6174;49.058;8.524;2023-06-22T20:52:33;2.47;;;1.70;;
12222;SDS011;6174;49.058;8.524;2023-06-22T20:55:00;2.10;;;1.60;;